Time;durP1;ratioP1;P1;durP2;ratioP2;P2;SDS_P1;SDS_P2;PMS_P1;PMS_P2;Temp;Humidity;BMP_temperature;BMP_pressure;BME280_temperature;BME280_humidity;BME280_pressure;Samples;Min_cycle;Max_cycle;Signal;HPM_P1;HPM_P2
2023/04/20 00:02:14;;;;;;;23.90;17.42;;;;;;;;;;5115322;28;20027;-71
2023/04/20 00:04:59;;;;;;;26.35;18.27;;;;;;;;;;5113797;28;20061;-70
2023/04/20 00:07:45;;;;;;;28.02;18.98;;;;;;;;;;5113647;28;20061;-71
2023/04/20 00:10:30;;;;;;;24.65;18.25;;;;;;;;;;5115109;28;20023;-72
2023/04/20 00:13:16;;;;;;;27.02;17.92;;;;;;;;;;5123442;28;20040;-72
2023/04/20 00:16:02;;;;;;;26.35;17.58;;;;;;;;;;5117489;28;20031;-71
2023/04/20 00:18:48;;;;;;;23.95;17.40;;;;;;;;;;5114426;28;20060;-71
2023/04/20 00:21:34;;;;;;;25.08;17.10;;;;;;;;;;5114363;28;20015;-72
2023/04/20 00:24:19;;;;;;;24.33;17.73;;;;;;;;;;5113971;28;20045;-71
2023/04/20 00:27:05;;;;;;;23.50;17.00;;;;;;;;;;5114153;28;20024;-71
2023/04/20 00:29:50;;;;;;;26.88;17.38;;;;;;;;;;5114060;28;20470;-72
2023/04/20 00:32:36;;;;;;;23.00;17.40;;;;;;;;;;5114737;28;20027;-71
2023/04/20 00:35:22;;;;;;;25.75;17.13;;;;;;;;;;5114285;28;20015;-72
2023/04/20 00:38:07;;;;;;;27.33;18.13;;;;;;;;;;5112901;28;20168;-72
2023/04/20 00:40:55;;;;;;;26.38;17.70;;;;;;;;;;5113792;28;20073;-71
2023/04/20 00:43:51;;;;;;;21.70;16.52;;;;;;;;;;5112491;28;20061;-71
2023/04/20 00:46:36;;;;;;;26.63;17.73;;;;;;;;;;5112852;28;20102;-71
2023/04/20 00:49:24;;;;;;;24.25;18.13;;;;;;;;;;5113909;28;20028;-71
2023/04/20 00:52:09;;;;;;;23.45;17.83;;;;;;;;;;5117462;28;20019;-71
2023/04/20 00:54:55;;;;;;;26.85;18.10;;;;;;;;;;5117764;28;20008;-72
2023/04/20 00:57:41;;;;;;;25.27;18.52;;;;;;;;;;5118017;28;20333;-71
2023/04/20 01:00:27;;;;;;;23.80;18.05;;;;;;;;;;5117515;28;20189;-71
2023/04/20 01:03:13;;;;;;;24.77;18.17;;;;;;;;;;5118010;28;20020;-70
2023/04/20 01:05:59;;;;;;;24.45;17.77;;;;;;;;;;5116934;28;20120;-70
2023/04/20 01:08:49;;;;;;;26.80;18.52;;;;;;;;;;5117172;28;20460;-71
2023/04/20 01:11:35;;;;;;;29.60;19.45;;;;;;;;;;5116399;28;20015;-71
2023/04/20 01:14:20;;;;;;;26.40;19.33;;;;;;;;;;5116371;28;20019;-71
2023/04/20 01:17:07;;;;;;;26.67;18.85;;;;;;;;;;5117858;28;20055;-71
2023/04/20 01:19:52;;;;;;;25.27;19.40;;;;;;;;;;5102155;28;20491;-72
2023/04/20 01:22:43;;;;;;;27.27;19.15;;;;;;;;;;5116026;28;20055;-71
2023/04/20 01:25:28;;;;;;;29.58;21.25;;;;;;;;;;5117078;28;20466;-71
2023/04/20 01:28:14;;;;;;;28.23;21.05;;;;;;;;;;5117214;28;20070;-72
2023/04/20 01:31:01;;;;;;;27.55;20.52;;;;;;;;;;5103828;28;20019;-71
2023/04/20 01:33:46;;;;;;;29.23;20.30;;;;;;;;;;5115423;28;20032;-71
2023/04/20 01:36:32;;;;;;;35.13;21.13;;;;;;;;;;5116248;28;20016;-72
2023/04/20 01:39:18;;;;;;;28.40;20.67;;;;;;;;;;5116622;28;20363;-72
2023/04/20 01:42:04;;;;;;;30.85;21.65;;;;;;;;;;5116721;28;20016;-72
2023/04/20 01:44:50;;;;;;;31.33;20.42;;;;;;;;;;5116631;28;20028;-72
2023/04/20 01:47:35;;;;;;;28.38;19.25;;;;;;;;;;5116305;28;20444;-71
2023/04/20 01:50:21;;;;;;;27.55;20.20;;;;;;;;;;5116798;28;20405;-71
2023/04/20 01:53:06;;;;;;;34.45;22.02;;;;;;;;;;5101594;28;20038;-72
2023/04/20 01:55:52;;;;;;;29.45;19.98;;;;;;;;;;5115573;28;20076;-71
2023/04/20 01:58:38;;;;;;;27.17;19.45;;;;;;;;;;5116670;28;20023;-71
2023/04/20 02:01:23;;;;;;;30.80;21.40;;;;;;;;;;5115290;28;20012;-71
2023/04/20 02:04:09;;;;;;;29.45;21.17;;;;;;;;;;5115467;28;20329;-71
2023/04/20 02:06:55;;;;;;;30.15;21.55;;;;;;;;;;5115912;28;20055;-71
2023/04/20 02:09:40;;;;;;;32.78;21.55;;;;;;;;;;5115978;28;20092;-71
2023/04/20 02:12:26;;;;;;;32.78;22.75;;;;;;;;;;5116517;28;20030;-71
2023/04/20 02:15:11;;;;;;;32.75;21.48;;;;;;;;;;5116332;28;20389;-72
2023/04/20 02:17:57;;;;;;;32.55;22.67;;;;;;;;;;5103222;28;20031;-72
2023/04/20 02:20:43;;;;;;;33.63;21.95;;;;;;;;;;5102639;28;20027;-71
2023/04/20 02:23:28;;;;;;;29.27;22.17;;;;;;;;;;5115969;28;20071;-71
2023/04/20 02:26:15;;;;;;;33.42;21.38;;;;;;;;;;5116349;28;20020;-71
2023/04/20 02:29:01;;;;;;;33.83;20.75;;;;;;;;;;5102811;28;20095;-70
2023/04/20 02:31:46;;;;;;;27.55;19.98;;;;;;;;;;5103011;28;20503;-71
2023/04/20 02:34:32;;;;;;;26.88;19.95;;;;;;;;;;5117469;28;20027;-71
2023/04/20 02:37:17;;;;;;;29.20;19.75;;;;;;;;;;5102612;28;20036;-71
2023/04/20 02:40:03;;;;;;;23.77;18.33;;;;;;;;;;5115809;28;20026;-72
2023/04/20 02:42:49;;;;;;;24.20;17.42;;;;;;;;;;5101364;28;20031;-71
2023/04/20 02:45:35;;;;;;;25.30;17.80;;;;;;;;;;5101539;28;20016;-71
2023/04/20 02:48:21;;;;;;;25.30;17.75;;;;;;;;;;5100915;28;20102;-71
2023/04/20 02:51:06;;;;;;;25.83;18.50;;;;;;;;;;5118119;28;20095;-70
2023/04/20 02:53:55;;;;;;;24.58;18.65;;;;;;;;;;5111483;28;20058;-71
2023/04/20 02:56:41;;;;;;;23.77;19.48;;;;;;;;;;5100636;28;20035;-72
2023/04/20 02:59:26;;;;;;;24.45;17.83;;;;;;;;;;5114941;28;20051;-71
2023/04/20 03:02:12;;;;;;;25.63;17.90;;;;;;;;;;5114539;28;20439;-72
2023/04/20 03:04:57;;;;;;;22.65;16.33;;;;;;;;;;5102050;28;20028;-72
2023/04/20 03:07:43;;;;;;;19.48;14.90;;;;;;;;;;5100017;28;20096;-71
2023/04/20 03:10:29;;;;;;;18.27;14.38;;;;;;;;;;5100884;28;20020;-71
2023/04/20 03:13:15;;;;;;;23.77;13.77;;;;;;;;;;5115040;28;20111;-72
2023/04/20 03:16:01;;;;;;;18.83;14.00;;;;;;;;;;5114523;28;20019;-71
2023/04/20 03:18:46;;;;;;;15.95;13.05;;;;;;;;;;5115370;28;20136;-71
2023/04/20 03:21:32;;;;;;;23.55;13.50;;;;;;;;;;5115211;28;20019;-71
2023/04/20 03:24:18;;;;;;;17.20;13.10;;;;;;;;;;5114247;28;20035;-71
2023/04/20 03:27:03;;;;;;;18.38;13.07;;;;;;;;;;5114829;28;20405;-72
2023/04/20 03:29:49;;;;;;;14.98;12.27;;;;;;;;;;5115126;28;20020;-72
2023/04/20 03:32:35;;;;;;;17.98;13.32;;;;;;;;;;5101865;28;20336;-71
2023/04/20 03:35:20;;;;;;;24.40;14.55;;;;;;;;;;5113491;28;20023;-71
2023/04/20 03:38:06;;;;;;;19.77;13.98;;;;;;;;;;5115540;28;20454;-70
2023/04/20 03:40:52;;;;;;;22.77;13.77;;;;;;;;;;5114182;28;20038;-71
2023/04/20 03:43:37;;;;;;;23.80;15.88;;;;;;;;;;5115074;28;20051;-72
2023/04/20 03:46:23;;;;;;;23.65;17.42;;;;;;;;;;5114468;28;20427;-71
2023/04/20 03:49:08;;;;;;;24.50;16.25;;;;;;;;;;5115201;28;20039;-71
2023/04/20 03:51:54;;;;;;;23.92;15.05;;;;;;;;;;5099574;28;20016;-72
2023/04/20 03:54:40;;;;;;;21.05;15.30;;;;;;;;;;5099292;28;20075;-71
2023/04/20 03:57:25;;;;;;;26.42;17.70;;;;;;;;;;5114991;28;20035;-71
2023/04/20 04:00:11;;;;;;;26.55;17.17;;;;;;;;;;5113552;28;20031;-72
2023/04/20 04:02:57;;;;;;;24.95;18.52;;;;;;;;;;5113314;28;20023;-71
2023/04/20 04:05:43;;;;;;;25.55;18.95;;;;;;;;;;5115168;28;20111;-71
2023/04/20 04:08:28;;;;;;;28.13;19.60;;;;;;;;;;5113423;28;20048;-71
2023/04/20 04:11:14;;;;;;;28.45;20.20;;;;;;;;;;5114195;28;20068;-71
2023/04/20 04:13:59;;;;;;;24.52;17.80;;;;;;;;;;5114067;28;20029;-71
2023/04/20 04:16:45;;;;;;;23.50;17.08;;;;;;;;;;5112981;28;20035;-71
2023/04/20 04:19:31;;;;;;;24.17;17.40;;;;;;;;;;5114060;28;20031;-71
2023/04/20 04:22:16;;;;;;;24.42;16.60;;;;;;;;;;5117837;28;20019;-71
2023/04/20 04:25:02;;;;;;;20.88;16.88;;;;;;;;;;5118100;28;20088;-70
2023/04/20 04:27:48;;;;;;;24.33;17.15;;;;;;;;;;5119337;28;20114;-71
2023/04/20 04:30:34;;;;;;;23.40;15.98;;;;;;;;;;5117501;28;20015;-71
2023/04/20 04:33:20;;;;;;;24.02;16.85;;;;;;;;;;5118401;28;20034;-71
2023/04/20 04:36:06;;;;;;;22.90;15.85;;;;;;;;;;5116826;28;20023;-72
2023/04/20 04:38:52;;;;;;;19.60;15.35;;;;;;;;;;5118602;28;20019;-72
2023/04/20 04:41:37;;;;;;;20.35;15.30;;;;;;;;;;5118380;28;20019;-71
2023/04/20 04:44:24;;;;;;;22.10;16.02;;;;;;;;;;5117508;28;20020;-71
2023/04/20 04:47:13;;;;;;;22.23;15.93;;;;;;;;;;5118047;28;20015;-71
2023/04/20 04:50:00;;;;;;;20.48;15.75;;;;;;;;;;5117518;28;20122;-71
2023/04/20 04:52:46;;;;;;;22.98;15.88;;;;;;;;;;5103580;28;20027;-70
2023/04/20 04:55:32;;;;;;;22.92;15.23;;;;;;;;;;5117102;28;20034;-71
2023/04/20 04:58:17;;;;;;;23.70;16.02;;;;;;;;;;5103576;28;20015;-71
2023/04/20 05:01:03;;;;;;;24.15;15.93;;;;;;;;;;5116546;28;20332;-71
2023/04/20 05:03:48;;;;;;;23.35;15.93;;;;;;;;;;5117650;28;20016;-71
2023/04/20 05:06:34;;;;;;;23.88;15.32;;;;;;;;;;5117493;28;20012;-71
2023/04/20 05:09:19;;;;;;;22.63;15.52;;;;;;;;;;5117954;28;20067;-71
2023/04/20 05:12:05;;;;;;;23.08;16.00;;;;;;;;;;5117717;28;20008;-71
2023/04/20 05:14:51;;;;;;;22.70;16.25;;;;;;;;;;5117199;28;20024;-71
2023/04/20 05:17:37;;;;;;;19.02;14.98;;;;;;;;;;5102275;28;20020;-70
2023/04/20 05:20:22;;;;;;;28.98;16.27;;;;;;;;;;5121987;28;20016;-70
2023/04/20 05:23:08;;;;;;;21.55;14.65;;;;;;;;;;5117211;28;20046;-70
2023/04/20 05:25:53;;;;;;;19.63;14.95;;;;;;;;;;5103330;28;20016;-70
2023/04/20 05:28:39;;;;;;;20.50;15.18;;;;;;;;;;5117441;28;20042;-70
2023/04/20 05:31:25;;;;;;;21.05;15.18;;;;;;;;;;5103931;28;20080;-70
2023/04/20 05:34:10;;;;;;;19.73;14.98;;;;;;;;;;5116843;28;20046;-71
2023/04/20 05:36:57;;;;;;;21.17;13.95;;;;;;;;;;5103591;28;20023;-70
2023/04/20 05:39:42;;;;;;;19.55;13.95;;;;;;;;;;5117071;28;20444;-70
2023/04/20 05:42:28;;;;;;;19.67;14.43;;;;;;;;;;5125744;28;20406;-71
2023/04/20 05:45:14;;;;;;;19.90;13.50;;;;;;;;;;5103843;28;20505;-70
2023/04/20 05:47:59;;;;;;;18.67;13.75;;;;;;;;;;5116867;28;20034;-70
2023/04/20 05:50:45;;;;;;;20.90;14.07;;;;;;;;;;5117226;28;20038;-71
2023/04/20 05:53:30;;;;;;;18.05;14.27;;;;;;;;;;5116322;28;20107;-71
2023/04/20 05:56:17;;;;;;;21.52;14.40;;;;;;;;;;5102163;28;20019;-70
2023/04/20 05:59:03;;;;;;;18.23;14.13;;;;;;;;;;5103352;28;20026;-70
2023/04/20 06:01:49;;;;;;;19.75;13.95;;;;;;;;;;5102256;28;20070;-71
2023/04/20 06:04:35;;;;;;;25.98;14.95;;;;;;;;;;5116484;28;20106;-70
2023/04/20 06:07:21;;;;;;;28.77;15.38;;;;;;;;;;5101759;28;20040;-70
2023/04/20 06:10:07;;;;;;;20.92;14.02;;;;;;;;;;5116911;28;20344;-71
2023/04/20 06:12:52;;;;;;;20.00;13.77;;;;;;;;;;5116718;28;20026;-70
2023/04/20 06:15:38;;;;;;;23.88;14.93;;;;;;;;;;5101669;28;20024;-71
2023/04/20 06:18:23;;;;;;;18.48;13.75;;;;;;;;;;5115917;28;20383;-70
2023/04/20 06:21:10;;;;;;;21.90;14.52;;;;;;;;;;5116902;28;20019;-70
2023/04/20 06:23:55;;;;;;;19.05;13.73;;;;;;;;;;5101333;28;20066;-70
2023/04/20 06:26:41;;;;;;;22.85;13.85;;;;;;;;;;5117145;28;20016;-70
2023/04/20 06:29:27;;;;;;;17.85;13.50;;;;;;;;;;5115775;28;20123;-71
2023/04/20 06:32:12;;;;;;;18.70;13.38;;;;;;;;;;5100561;28;20015;-71
2023/04/20 06:34:58;;;;;;;21.35;13.45;;;;;;;;;;5102791;28;20015;-71
2023/04/20 06:37:44;;;;;;;18.02;13.60;;;;;;;;;;5101201;28;20066;-70
2023/04/20 06:40:30;;;;;;;19.33;13.32;;;;;;;;;;5115481;28;20051;-70
2023/04/20 06:43:15;;;;;;;17.80;12.93;;;;;;;;;;5102399;28;20023;-70
2023/04/20 06:46:01;;;;;;;21.00;13.85;;;;;;;;;;5101193;28;20011;-69
2023/04/20 06:48:46;;;;;;;17.27;12.18;;;;;;;;;;5100045;28;20031;-70
2023/04/20 06:51:32;;;;;;;17.77;13.43;;;;;;;;;;5116802;28;20016;-70
2023/04/20 06:54:18;;;;;;;20.75;12.82;;;;;;;;;;5100983;28;20024;-70
2023/04/20 06:57:04;;;;;;;16.92;11.80;;;;;;;;;;5100299;28;20015;-71
2023/04/20 06:59:49;;;;;;;17.77;12.88;;;;;;;;;;5115586;28;20023;-71
2023/04/20 07:03:01;;;;;;;18.95;13.50;;;;;;;;;;5115829;28;20035;-71
2023/04/20 07:05:47;;;;;;;23.30;13.50;;;;;;;;;;5100277;28;20050;-71
2023/04/20 07:08:32;;;;;;;20.50;12.50;;;;;;;;;;5100268;28;20046;-70
2023/04/20 07:11:18;;;;;;;17.98;12.80;;;;;;;;;;5115822;28;20015;-71
2023/04/20 07:14:04;;;;;;;19.20;13.57;;;;;;;;;;5115161;28;20023;-70
2023/04/20 07:16:53;;;;;;;16.27;12.95;;;;;;;;;;5101010;28;20084;-71
2023/04/20 07:19:39;;;;;;;22.08;14.20;;;;;;;;;;5100932;28;20103;-70
2023/04/20 07:22:24;;;;;;;19.70;13.68;;;;;;;;;;5100445;28;20111;-71
2023/04/20 07:25:10;;;;;;;17.63;12.55;;;;;;;;;;5115685;28;20015;-71
2023/04/20 07:27:55;;;;;;;23.05;13.13;;;;;;;;;;5102371;28;20020;-73
2023/04/20 07:30:41;;;;;;;23.67;13.60;;;;;;;;;;5101209;28;20095;-70
2023/04/20 07:33:28;;;;;;;19.85;13.70;;;;;;;;;;5114676;28;20452;-71
2023/04/20 07:36:14;;;;;;;16.77;13.23;;;;;;;;;;5115258;28;20031;-69
2023/04/20 07:39:00;;;;;;;20.50;12.95;;;;;;;;;;5114979;28;20051;-70
2023/04/20 07:41:45;;;;;;;27.73;13.82;;;;;;;;;;5101162;28;20411;-70
2023/04/20 07:44:31;;;;;;;21.83;13.45;;;;;;;;;;5114281;28;20034;-71
2023/04/20 07:47:16;;;;;;;16.42;13.57;;;;;;;;;;5115246;28;20024;-70
2023/04/20 07:50:02;;;;;;;17.17;13.27;;;;;;;;;;5114356;28;20011;-70
2023/04/20 07:52:48;;;;;;;20.38;13.10;;;;;;;;;;5114032;28;20108;-71
2023/04/20 07:55:34;;;;;;;17.80;12.70;;;;;;;;;;5114513;28;20015;-71
2023/04/20 07:58:20;;;;;;;19.63;12.70;;;;;;;;;;5114743;28;20085;-70
2023/04/20 08:01:06;;;;;;;19.52;13.02;;;;;;;;;;5114722;28;20038;-70
2023/04/20 08:03:53;;;;;;;17.77;12.90;;;;;;;;;;5114767;28;20027;-71
2023/04/20 08:06:39;;;;;;;19.33;13.63;;;;;;;;;;5099635;28;20436;-70
2023/04/20 08:09:25;;;;;;;24.60;16.45;;;;;;;;;;5114049;28;20031;-70
2023/04/20 08:12:10;;;;;;;21.40;14.05;;;;;;;;;;5113383;28;20019;-70
2023/04/20 08:15:00;;;;;;;18.73;13.40;;;;;;;;;;5100812;28;20078;-69
2023/04/20 08:17:46;;;;;;;20.15;14.02;;;;;;;;;;5100151;28;20030;-70
2023/04/20 08:20:32;;;;;;;30.23;13.75;;;;;;;;;;5113091;28;20073;-70
2023/04/20 08:23:18;;;;;;;21.10;14.65;;;;;;;;;;5113850;28;20444;-70
2023/04/20 08:26:03;;;;;;;27.45;18.05;;;;;;;;;;5114022;28;20092;-70
2023/04/20 08:28:49;;;;;;;23.40;13.98;;;;;;;;;;5114102;28;20012;-70
2023/04/20 08:31:35;;;;;;;21.50;14.32;;;;;;;;;;5114271;28;20019;-70
2023/04/20 08:34:21;;;;;;;20.65;12.75;;;;;;;;;;5114163;28;20047;-69
2023/04/20 08:37:07;;;;;;;16.35;12.93;;;;;;;;;;5114533;28;20061;-70
2023/04/20 08:39:53;;;;;;;18.88;12.45;;;;;;;;;;5115388;28;20038;-71
2023/04/20 08:42:38;;;;;;;16.83;12.55;;;;;;;;;;5114274;28;20020;-70
2023/04/20 08:45:24;;;;;;;18.70;12.75;;;;;;;;;;5114951;28;20027;-71
2023/04/20 08:48:10;;;;;;;20.40;12.52;;;;;;;;;;5114288;28;20023;-71
2023/04/20 08:50:56;;;;;;;18.75;12.73;;;;;;;;;;5114342;28;20039;-71
2023/04/20 08:53:41;;;;;;;23.40;13.65;;;;;;;;;;5112796;28;20034;-71
2023/04/20 08:56:32;;;;;;;17.38;12.82;;;;;;;;;;5114074;28;20040;-70
2023/04/20 08:59:17;;;;;;;14.20;11.07;;;;;;;;;;5114076;28;20116;-71
2023/04/20 09:02:07;;;;;;;15.30;11.52;;;;;;;;;;5100836;28;20427;-70
2023/04/20 09:05:05;;;;;;;17.10;10.77;;;;;;;;;;5099257;28;20031;-70
2023/04/20 09:07:52;;;;;;;17.45;11.05;;;;;;;;;;5114886;28;20417;-70
2023/04/20 09:10:42;;;;;;;16.15;11.25;;;;;;;;;;5118858;28;20075;-71
2023/04/20 09:13:28;;;;;;;15.95;11.00;;;;;;;;;;5118130;28;20356;-72
2023/04/20 09:16:14;;;;;;;13.70;10.77;;;;;;;;;;5118530;28;20027;-71
2023/04/20 09:18:59;;;;;;;17.80;11.38;;;;;;;;;;5116766;28;20020;-72
2023/04/20 09:21:49;;;;;;;14.23;10.43;;;;;;;;;;5103505;28;20023;-71
2023/04/20 09:24:37;;;;;;;13.75;10.00;;;;;;;;;;5117196;28;20027;-71
2023/04/20 09:27:25;;;;;;;16.67;11.52;;;;;;;;;;5117425;28;20151;-71
2023/04/20 09:30:10;;;;;;;11.75;9.18;;;;;;;;;;5116539;28;20015;-71
2023/04/20 09:33:03;;;;;;;15.55;10.35;;;;;;;;;;5102852;28;20356;-71
2023/04/20 09:35:48;;;;;;;12.35;9.45;;;;;;;;;;5116810;28;20448;-70
2023/04/20 09:38:35;;;;;;;13.55;10.65;;;;;;;;;;5116687;28;20054;-71
2023/04/20 09:41:21;;;;;;;13.27;10.25;;;;;;;;;;5116758;28;20035;-71
2023/04/20 09:44:07;;;;;;;14.40;11.05;;;;;;;;;;5117367;28;20038;-71
2023/04/20 09:46:53;;;;;;;14.82;10.88;;;;;;;;;;5116768;28;20031;-70
2023/04/20 09:49:38;;;;;;;14.77;10.45;;;;;;;;;;5116717;28;20443;-70
2023/04/20 09:52:25;;;;;;;12.70;10.45;;;;;;;;;;5116691;28;20172;-69
2023/04/20 09:55:11;;;;;;;13.20;10.02;;;;;;;;;;5117211;28;20030;-71
2023/04/20 09:57:57;;;;;;;12.38;9.75;;;;;;;;;;5101476;28;20043;-71
2023/04/20 10:00:43;;;;;;;15.05;10.73;;;;;;;;;;5116289;28;20024;-71
2023/04/20 10:03:29;;;;;;;13.10;11.23;;;;;;;;;;5102457;28;20020;-71
2023/04/20 10:06:21;;;;;;;12.27;10.23;;;;;;;;;;5117352;28;20068;-72
2023/04/20 10:09:07;;;;;;;12.95;10.73;;;;;;;;;;5115972;28;20035;-71
2023/04/20 10:12:03;;;;;;;14.55;10.52;;;;;;;;;;5116628;28;20016;-70
2023/04/20 10:14:54;;;;;;;16.52;11.80;;;;;;;;;;5119819;28;20044;-70
2023/04/20 10:17:40;;;;;;;15.18;11.25;;;;;;;;;;5124496;28;20020;-71
2023/04/20 10:20:26;;;;;;;17.50;10.70;;;;;;;;;;5115323;28;20436;-70
2023/04/20 10:23:14;;;;;;;13.60;10.68;;;;;;;;;;5115780;28;20024;-72
2023/04/20 10:26:01;;;;;;;14.20;10.80;;;;;;;;;;5115714;28;20020;-71
2023/04/20 10:28:47;;;;;;;14.85;10.38;;;;;;;;;;5115145;28;20030;-71
2023/04/20 10:31:36;;;;;;;14.30;9.90;;;;;;;;;;5101072;28;20019;-71
2023/04/20 10:34:32;;;;;;;12.65;10.40;;;;;;;;;;5114803;28;20024;-71
2023/04/20 10:37:17;;;;;;;10.82;8.98;;;;;;;;;;5115899;28;20088;-71
2023/04/20 10:40:03;;;;;;;14.02;9.15;;;;;;;;;;5115238;28;20050;-71
2023/04/20 10:42:49;;;;;;;14.55;9.05;;;;;;;;;;5116179;28;20038;-71
2023/04/20 10:45:35;;;;;;;10.55;8.48;;;;;;;;;;5115589;28;20011;-72
2023/04/20 10:48:21;;;;;;;12.88;8.43;;;;;;;;;;5115065;28;20035;-72
2023/04/20 10:51:09;;;;;;;11.73;8.65;;;;;;;;;;5115149;28;20023;-71
2023/04/20 10:53:59;;;;;;;11.30;8.80;;;;;;;;;;5101045;28;20055;-71
2023/04/20 10:56:44;;;;;;;13.50;9.95;;;;;;;;;;5115386;28;20336;-70
2023/04/20 10:59:30;;;;;;;11.25;8.30;;;;;;;;;;5115246;28;20019;-72
2023/04/20 11:02:16;;;;;;;13.45;7.90;;;;;;;;;;5115157;28;20104;-72
2023/04/20 11:05:09;;;;;;;10.88;8.18;;;;;;;;;;5115551;28;20031;-72
2023/04/20 11:07:56;;;;;;;9.05;7.47;;;;;;;;;;5115101;28;20044;-73
2023/04/20 11:10:42;;;;;;;14.45;7.88;;;;;;;;;;5115575;28;20008;-72
2023/04/20 11:13:29;;;;;;;14.77;8.40;;;;;;;;;;5114713;28;20073;-72
2023/04/20 11:16:15;;;;;;;10.70;7.32;;;;;;;;;;5114865;28;20023;-72
2023/04/20 11:19:02;;;;;;;12.90;7.88;;;;;;;;;;5114686;28;20062;-71
2023/04/20 11:21:48;;;;;;;10.82;8.43;;;;;;;;;;5100879;28;20020;-71
2023/04/20 11:24:34;;;;;;;12.05;8.25;;;;;;;;;;5114944;28;20112;-72
2023/04/20 11:27:21;;;;;;;16.98;7.78;;;;;;;;;;5113472;28;20016;-71
2023/04/20 11:30:08;;;;;;;9.57;6.43;;;;;;;;;;5100706;28;20032;-71
2023/04/20 11:32:54;;;;;;;8.90;4.80;;;;;;;;;;5115096;28;20023;-71
2023/04/20 11:35:40;;;;;;;7.55;5.18;;;;;;;;;;5113894;28;20393;-71
2023/04/20 11:38:27;;;;;;;7.28;5.32;;;;;;;;;;5114933;28;20033;-72
2023/04/20 11:41:12;;;;;;;9.40;5.10;;;;;;;;;;5114400;28;20028;-72
2023/04/20 11:43:58;;;;;;;7.47;5.00;;;;;;;;;;5114311;28;20386;-72
2023/04/20 11:46:44;;;;;;;5.30;4.10;;;;;;;;;;5114043;28;20032;-71
2023/04/20 11:49:29;;;;;;;5.50;4.10;;;;;;;;;;5114435;28;20517;-72
2023/04/20 11:52:15;;;;;;;11.73;4.47;;;;;;;;;;5114096;28;20027;-72
2023/04/20 11:55:01;;;;;;;6.93;4.60;;;;;;;;;;5114292;28;20080;-71
2023/04/20 11:57:46;;;;;;;5.40;4.55;;;;;;;;;;5115381;28;20114;-71
2023/04/20 12:00:32;;;;;;;7.00;5.03;;;;;;;;;;5113333;27;20019;-73
2023/04/20 12:03:18;;;;;;;8.50;5.25;;;;;;;;;;5114101;28;20024;-72
2023/04/20 12:06:03;;;;;;;9.95;6.28;;;;;;;;;;5114616;28;20012;-72
2023/04/20 12:08:49;;;;;;;5.68;4.90;;;;;;;;;;5114369;28;20043;-72
2023/04/20 12:11:35;;;;;;;8.27;6.38;;;;;;;;;;5113047;28;20020;-71
2023/04/20 12:14:20;;;;;;;9.05;5.05;;;;;;;;;;5114389;28;20030;-72
2023/04/20 12:17:06;;;;;;;9.13;5.55;;;;;;;;;;5114189;28;20413;-72
2023/04/20 12:19:52;;;;;;;7.75;5.68;;;;;;;;;;5114858;28;20047;-72
2023/04/20 12:22:37;;;;;;;6.85;5.63;;;;;;;;;;5114457;28;20024;-72
2023/04/20 12:25:25;;;;;;;6.93;5.45;;;;;;;;;;5114644;28;20076;-73
2023/04/20 12:28:11;;;;;;;8.02;6.00;;;;;;;;;;5113807;28;20016;-72
2023/04/20 12:30:56;;;;;;;6.22;5.43;;;;;;;;;;5100049;28;20026;-72
2023/04/20 12:33:43;;;;;;;7.75;5.47;;;;;;;;;;5099095;28;20140;-71
2023/04/20 12:36:29;;;;;;;8.27;5.47;;;;;;;;;;5113570;28;20103;-72
2023/04/20 12:39:14;;;;;;;9.10;6.07;;;;;;;;;;5098147;28;20035;-71
2023/04/20 12:42:01;;;;;;;11.25;6.35;;;;;;;;;;5099494;28;20487;-72
2023/04/20 12:44:46;;;;;;;11.43;6.53;;;;;;;;;;5117484;28;20027;-71
2023/04/20 12:47:32;;;;;;;9.43;7.20;;;;;;;;;;5117202;28;20397;-72
2023/04/20 12:50:18;;;;;;;15.32;7.93;;;;;;;;;;5118271;28;20413;-72
2023/04/20 12:53:03;;;;;;;17.70;8.95;;;;;;;;;;5118220;28;20027;-72
2023/04/20 12:55:49;;;;;;;13.65;10.00;;;;;;;;;;5118020;28;20062;-70
2023/04/20 12:58:34;;;;;;;21.58;10.82;;;;;;;;;;5117881;28;20102;-71
2023/04/20 13:01:20;;;;;;;15.30;10.63;;;;;;;;;;5116705;28;20016;-72
2023/04/20 13:04:06;;;;;;;15.43;10.57;;;;;;;;;;5116330;28;20023;-71
2023/04/20 13:06:51;;;;;;;14.50;11.10;;;;;;;;;;5116465;28;20019;-71
2023/04/20 13:09:37;;;;;;;13.43;10.70;;;;;;;;;;5117351;28;20441;-72
2023/04/20 13:12:25;;;;;;;16.50;11.77;;;;;;;;;;5103351;28;20405;-71
2023/04/20 13:15:12;;;;;;;19.05;12.23;;;;;;;;;;5102981;28;20031;-71
2023/04/20 13:17:57;;;;;;;16.63;11.00;;;;;;;;;;5117403;28;20035;-71
2023/04/20 13:20:43;;;;;;;12.88;10.48;;;;;;;;;;5116997;28;20047;-72
2023/04/20 13:23:28;;;;;;;16.17;10.80;;;;;;;;;;5116691;28;20042;-71
2023/04/20 13:26:14;;;;;;;15.85;11.93;;;;;;;;;;5117440;28;20428;-72
2023/04/20 13:28:59;;;;;;;17.33;13.18;;;;;;;;;;5116833;28;20030;-72
2023/04/20 13:31:47;;;;;;;14.07;10.57;;;;;;;;;;5116591;28;20016;-71
2023/04/20 13:34:32;;;;;;;10.60;7.07;;;;;;;;;;5116022;28;20107;-72
2023/04/20 13:37:18;;;;;;;7.10;5.82;;;;;;;;;;5117052;28;20059;-72
2023/04/20 13:40:08;;;;;;;7.25;5.28;;;;;;;;;;5103673;28;20027;-71
2023/04/20 13:42:54;;;;;;;6.40;5.40;;;;;;;;;;5116950;28;20020;-71
2023/04/20 13:45:40;;;;;;;6.97;5.60;;;;;;;;;;5117448;28;20023;-71
2023/04/20 13:48:25;;;;;;;5.25;4.20;;;;;;;;;;5115963;28;20054;-70
2023/04/20 13:51:11;;;;;;;5.90;4.63;;;;;;;;;;5116925;28;20034;-72
2023/04/20 13:53:57;;;;;;;5.45;4.30;;;;;;;;;;5116123;28;20155;-71
2023/04/20 13:56:42;;;;;;;4.55;3.50;;;;;;;;;;5116116;28;20020;-72
2023/04/20 13:59:28;;;;;;;3.85;3.10;;;;;;;;;;5101704;28;20076;-70
2023/04/20 14:02:13;;;;;;;3.35;3.00;;;;;;;;;;5116106;28;20333;-72
2023/04/20 14:04:59;;;;;;;3.70;2.90;;;;;;;;;;5116102;28;20080;-72
2023/04/20 14:07:45;;;;;;;3.40;3.10;;;;;;;;;;5115987;28;20055;-72
2023/04/20 14:10:30;;;;;;;4.25;2.90;;;;;;;;;;5101758;28;20016;-72
2023/04/20 14:13:16;;;;;;;3.05;2.67;;;;;;;;;;5101445;28;20088;-72
2023/04/20 14:19:09;;;;;;;3.70;2.95;;;;;;;;;;5125858;28;20030;-72
2023/04/20 14:21:55;;;;;;;4.15;3.13;;;;;;;;;;5110824;28;20043;-72
2023/04/20 14:24:41;;;;;;;4.00;2.80;;;;;;;;;;5116250;28;20019;-72
2023/04/20 14:27:27;;;;;;;3.40;2.95;;;;;;;;;;5116616;28;20435;-72
2023/04/20 14:30:13;;;;;;;4.55;3.25;;;;;;;;;;5121507;27;20030;-71
2023/04/20 14:32:59;;;;;;;5.47;2.90;;;;;;;;;;5135702;27;20350;-72
2023/04/20 14:35:45;;;;;;;5.05;3.58;;;;;;;;;;5136239;27;20071;-72
2023/04/20 14:38:30;;;;;;;7.13;4.50;;;;;;;;;;5136622;27;20336;-72
2023/04/20 14:41:16;;;;;;;4.60;3.92;;;;;;;;;;5135343;27;20065;-71
2023/04/20 14:44:02;;;;;;;4.20;3.30;;;;;;;;;;5135320;27;20019;-72
2023/04/20 14:46:48;;;;;;;4.90;3.65;;;;;;;;;;5135878;27;20026;-71
2023/04/20 14:49:33;;;;;;;4.82;3.70;;;;;;;;;;5135503;27;20016;-72
2023/04/20 14:52:19;;;;;;;4.32;3.30;;;;;;;;;;5135527;27;20039;-72
2023/04/20 14:55:05;;;;;;;5.50;3.53;;;;;;;;;;5136075;27;20031;-73
2023/04/20 14:57:53;;;;;;;7.03;3.60;;;;;;;;;;5136225;27;20019;-71
2023/04/20 15:00:38;;;;;;;5.80;3.33;;;;;;;;;;5134921;27;20058;-72
2023/04/20 15:03:24;;;;;;;3.75;2.88;;;;;;;;;;5135774;27;20023;-72
2023/04/20 15:06:10;;;;;;;4.97;3.28;;;;;;;;;;5134387;27;20019;-72
2023/04/20 15:08:56;;;;;;;3.95;3.25;;;;;;;;;;5135992;27;20054;-72
2023/04/20 15:11:41;;;;;;;3.67;2.90;;;;;;;;;;5137667;27;20034;-72
2023/04/20 15:14:27;;;;;;;3.50;2.70;;;;;;;;;;5136782;27;20019;-72
2023/04/20 15:17:13;;;;;;;5.13;3.25;;;;;;;;;;5135999;27;20435;-72
2023/04/20 15:19:58;;;;;;;3.30;3.00;;;;;;;;;;5135815;27;20027;-72
2023/04/20 15:22:44;;;;;;;5.70;2.97;;;;;;;;;;5136124;27;20107;-67
2023/04/20 15:25:33;;;;;;;3.88;3.03;;;;;;;;;;5116879;27;20039;-74
2023/04/20 15:28:18;;;;;;;6.35;3.58;;;;;;;;;;5115043;28;20015;-75
2023/04/20 15:31:06;;;;;;;4.13;3.30;;;;;;;;;;5114618;28;20016;-72
2023/04/20 15:33:51;;;;;;;3.58;3.17;;;;;;;;;;5100966;28;20351;-75
2023/04/20 15:36:37;;;;;;;4.03;2.97;;;;;;;;;;5116017;28;20107;-74
2023/04/20 15:39:23;;;;;;;4.28;3.00;;;;;;;;;;5101504;28;20023;-73
2023/04/20 15:42:09;;;;;;;4.50;3.08;;;;;;;;;;5115864;28;20415;-74
2023/04/20 15:44:55;;;;;;;4.57;3.47;;;;;;;;;;5115266;28;20062;-71
2023/04/20 15:47:40;;;;;;;4.13;2.97;;;;;;;;;;5114812;28;20436;-72
2023/04/20 15:50:26;;;;;;;3.80;2.50;;;;;;;;;;5100196;28;20110;-71
2023/04/20 15:53:12;;;;;;;4.38;3.13;;;;;;;;;;5114226;28;20019;-72
2023/04/20 15:55:57;;;;;;;4.50;2.83;;;;;;;;;;5115256;28;20448;-73
2023/04/20 15:58:44;;;;;;;3.90;2.80;;;;;;;;;;5114265;28;20027;-73
2023/04/20 16:01:29;;;;;;;5.50;2.78;;;;;;;;;;5114938;28;20079;-72
2023/04/20 16:04:18;;;;;;;5.38;2.55;;;;;;;;;;5100355;28;20026;-73
2023/04/20 16:07:04;;;;;;;3.47;2.30;;;;;;;;;;5104607;27;20136;-75
2023/04/20 16:09:50;;;;;;;5.90;2.60;;;;;;;;;;5119765;28;20034;-72
2023/04/20 16:12:35;;;;;;;4.78;3.08;;;;;;;;;;5119019;28;20451;-72
2023/04/20 16:15:21;;;;;;;5.05;4.00;;;;;;;;;;5134286;28;20027;-70
2023/04/20 16:18:07;;;;;;;7.32;4.60;;;;;;;;;;5122114;27;20023;-73